sensor_id;sensor_type;location;lat;lon;timestamp;P1;durP1;ratioP1;P2;durP2;ratioP2
7191;SDS011;3637;51.494;11.958;2023-03-13T00:03:00;4.37;;;2.40;;
7191;SDS011;3637;51.494;11.958;2023-03-13T00:06:02;6.67;;;2.60;;
7191;SDS011;3637;51.494;11.958;2023-03-13T00:09:05;5.23;;;2.33;;
7191;SDS011;3637;51.494;11.958;2023-03-13T00:12:08;9.57;;;2.00;;
7191;SDS011;3637;51.494;11.958;2023-03-13T00:15:11;5.10;;;2.63;;
7191;SDS011;3637;51.494;11.958;2023-03-13T00:18:13;6.93;;;2.63;;
7191;SDS011;3637;51.494;11.958;2023-03-13T00:21:15;4.97;;;2.60;;
7191;SDS011;3637;51.494;11.958;2023-03-13T00:24:18;6.70;;;2.50;;
7191;SDS011;3637;51.494;11.958;2023-03-13T00:27:21;9.60;;;2.70;;
7191;SDS011;3637;51.494;11.958;2023-03-13T00:30:24;4.43;;;2.40;;
7191;SDS011;3637;51.494;11.958;2023-03-13T00:33:27;5.00;;;2.77;;
7191;SDS011;3637;51.494;11.958;2023-03-13T00:36:29;5.37;;;2.40;;
7191;SDS011;3637;51.494;11.958;2023-03-13T00:39:33;8.70;;;2.80;;
7191;SDS011;3637;51.494;11.958;2023-03-13T00:42:35;5.37;;;2.80;;
7191;SDS011;3637;51.494;11.958;2023-03-13T00:45:38;4.97;;;3.07;;
7191;SDS011;3637;51.494;11.958;2023-03-13T00:48:40;3.77;;;2.40;;
7191;SDS011;3637;51.494;11.958;2023-03-13T00:51:42;9.37;;;2.60;;
7191;SDS011;3637;51.494;11.958;2023-03-13T00:54:43;6.13;;;2.83;;
7191;SDS011;3637;51.494;11.958;2023-03-13T00:57:45;5.47;;;2.43;;
7191;SDS011;3637;51.494;11.958;2023-03-13T01:00:48;7.47;;;2.90;;
7191;SDS011;3637;51.494;11.958;2023-03-13T01:03:52;8.50;;;3.30;;
7191;SDS011;3637;51.494;11.958;2023-03-13T01:06:55;7.20;;;2.87;;
7191;SDS011;3637;51.494;11.958;2023-03-13T01:09:57;4.77;;;2.70;;
7191;SDS011;3637;51.494;11.958;2023-03-13T01:13:01;8.03;;;2.10;;
7191;SDS011;3637;51.494;11.958;2023-03-13T01:16:06;6.53;;;3.00;;
7191;SDS011;3637;51.494;11.958;2023-03-13T01:19:10;5.93;;;2.80;;
7191;SDS011;3637;51.494;11.958;2023-03-13T01:22:13;6.70;;;2.83;;
7191;SDS011;3637;51.494;11.958;2023-03-13T01:25:15;4.80;;;2.63;;
7191;SDS011;3637;51.494;11.958;2023-03-13T01:28:17;10.13;;;3.60;;
7191;SDS011;3637;51.494;11.958;2023-03-13T01:31:20;5.90;;;2.47;;
7191;SDS011;3637;51.494;11.958;2023-03-13T01:34:23;7.77;;;2.30;;
7191;SDS011;3637;51.494;11.958;2023-03-13T01:37:25;8.37;;;2.60;;
7191;SDS011;3637;51.494;11.958;2023-03-13T01:40:29;5.43;;;2.37;;
7191;SDS011;3637;51.494;11.958;2023-03-13T01:43:32;5.23;;;2.60;;
7191;SDS011;3637;51.494;11.958;2023-03-13T01:46:36;4.63;;;2.20;;
7191;SDS011;3637;51.494;11.958;2023-03-13T01:49:38;8.37;;;2.90;;
7191;SDS011;3637;51.494;11.958;2023-03-13T01:52:40;6.10;;;2.00;;
7191;SDS011;3637;51.494;11.958;2023-03-13T01:55:41;3.93;;;2.53;;
7191;SDS011;3637;51.494;11.958;2023-03-13T01:58:43;5.13;;;2.70;;
7191;SDS011;3637;51.494;11.958;2023-03-13T02:01:47;6.00;;;2.30;;
7191;SDS011;3637;51.494;11.958;2023-03-13T02:04:53;6.27;;;2.60;;
7191;SDS011;3637;51.494;11.958;2023-03-13T02:07:58;4.87;;;3.07;;
7191;SDS011;3637;51.494;11.958;2023-03-13T02:11:06;4.47;;;2.33;;
7191;SDS011;3637;51.494;11.958;2023-03-13T02:14:14;4.13;;;2.17;;
7191;SDS011;3637;51.494;11.958;2023-03-13T02:17:20;8.40;;;2.63;;
7191;SDS011;3637;51.494;11.958;2023-03-13T02:20:23;7.20;;;2.57;;
7191;SDS011;3637;51.494;11.958;2023-03-13T02:23:26;5.43;;;2.30;;
7191;SDS011;3637;51.494;11.958;2023-03-13T02:26:35;5.00;;;2.33;;
7191;SDS011;3637;51.494;11.958;2023-03-13T02:29:37;7.57;;;2.77;;
7191;SDS011;3637;51.494;11.958;2023-03-13T02:32:40;5.07;;;2.10;;
7191;SDS011;3637;51.494;11.958;2023-03-13T02:35:42;4.30;;;2.30;;
7191;SDS011;3637;51.494;11.958;2023-03-13T02:38:46;6.30;;;2.27;;
7191;SDS011;3637;51.494;11.958;2023-03-13T02:41:53;5.20;;;2.53;;
7191;SDS011;3637;51.494;11.958;2023-03-13T02:44:55;5.07;;;2.13;;
7191;SDS011;3637;51.494;11.958;2023-03-13T02:47:56;3.90;;;2.33;;
7191;SDS011;3637;51.494;11.958;2023-03-13T02:50:58;4.83;;;2.10;;
7191;SDS011;3637;51.494;11.958;2023-03-13T02:54:03;5.13;;;2.00;;
7191;SDS011;3637;51.494;11.958;2023-03-13T02:57:09;3.40;;;2.27;;
7191;SDS011;3637;51.494;11.958;2023-03-13T03:00:11;6.97;;;2.70;;
7191;SDS011;3637;51.494;11.958;2023-03-13T03:03:15;11.50;;;3.10;;
7191;SDS011;3637;51.494;11.958;2023-03-13T03:06:17;3.40;;;2.20;;
7191;SDS011;3637;51.494;11.958;2023-03-13T03:09:19;6.00;;;1.90;;
7191;SDS011;3637;51.494;11.958;2023-03-13T03:12:23;3.73;;;2.20;;
7191;SDS011;3637;51.494;11.958;2023-03-13T03:15:25;3.43;;;2.30;;
7191;SDS011;3637;51.494;11.958;2023-03-13T03:18:26;4.07;;;2.40;;
7191;SDS011;3637;51.494;11.958;2023-03-13T03:21:28;7.63;;;2.83;;
7191;SDS011;3637;51.494;11.958;2023-03-13T03:24:30;5.13;;;2.30;;
7191;SDS011;3637;51.494;11.958;2023-03-13T03:27:33;5.83;;;2.30;;
7191;SDS011;3637;51.494;11.958;2023-03-13T03:30:36;8.10;;;2.40;;
7191;SDS011;3637;51.494;11.958;2023-03-13T03:33:38;8.70;;;3.10;;
7191;SDS011;3637;51.494;11.958;2023-03-13T03:36:41;3.23;;;2.10;;
7191;SDS011;3637;51.494;11.958;2023-03-13T03:39:43;7.27;;;2.30;;
7191;SDS011;3637;51.494;11.958;2023-03-13T03:42:46;4.43;;;2.00;;
7191;SDS011;3637;51.494;11.958;2023-03-13T03:45:48;4.73;;;2.00;;
7191;SDS011;3637;51.494;11.958;2023-03-13T03:48:50;4.93;;;2.13;;
7191;SDS011;3637;51.494;11.958;2023-03-13T03:51:51;2.97;;;2.07;;
7191;SDS011;3637;51.494;11.958;2023-03-13T03:54:54;8.83;;;3.43;;
7191;SDS011;3637;51.494;11.958;2023-03-13T03:57:57;10.63;;;2.67;;
7191;SDS011;3637;51.494;11.958;2023-03-13T04:00:58;7.40;;;2.30;;
7191;SDS011;3637;51.494;11.958;2023-03-13T04:04:00;7.10;;;2.30;;
7191;SDS011;3637;51.494;11.958;2023-03-13T04:07:02;5.17;;;2.80;;
7191;SDS011;3637;51.494;11.958;2023-03-13T04:10:04;6.67;;;2.63;;
7191;SDS011;3637;51.494;11.958;2023-03-13T04:13:08;6.47;;;2.47;;
7191;SDS011;3637;51.494;11.958;2023-03-13T04:16:10;4.47;;;1.73;;
7191;SDS011;3637;51.494;11.958;2023-03-13T04:19:12;9.67;;;2.70;;
7191;SDS011;3637;51.494;11.958;2023-03-13T04:22:16;3.73;;;2.53;;
7191;SDS011;3637;51.494;11.958;2023-03-13T04:25:18;8.53;;;2.60;;
7191;SDS011;3637;51.494;11.958;2023-03-13T04:28:21;4.83;;;2.27;;
7191;SDS011;3637;51.494;11.958;2023-03-13T04:31:23;7.07;;;2.70;;
7191;SDS011;3637;51.494;11.958;2023-03-13T04:34:25;6.77;;;2.80;;
7191;SDS011;3637;51.494;11.958;2023-03-13T04:37:26;8.17;;;2.50;;
7191;SDS011;3637;51.494;11.958;2023-03-13T04:40:28;8.97;;;2.20;;
7191;SDS011;3637;51.494;11.958;2023-03-13T04:43:31;5.67;;;2.20;;
7191;SDS011;3637;51.494;11.958;2023-03-13T04:46:33;5.67;;;2.43;;
7191;SDS011;3637;51.494;11.958;2023-03-13T04:49:35;5.43;;;2.53;;
7191;SDS011;3637;51.494;11.958;2023-03-13T04:52:39;3.83;;;2.50;;
7191;SDS011;3637;51.494;11.958;2023-03-13T04:55:41;9.60;;;2.83;;
7191;SDS011;3637;51.494;11.958;2023-03-13T04:58:45;6.73;;;2.50;;
7191;SDS011;3637;51.494;11.958;2023-03-13T05:01:48;8.40;;;2.63;;
7191;SDS011;3637;51.494;11.958;2023-03-13T05:04:50;10.23;;;2.40;;
7191;SDS011;3637;51.494;11.958;2023-03-13T05:07:52;7.23;;;2.37;;
7191;SDS011;3637;51.494;11.958;2023-03-13T05:10:54;6.20;;;2.23;;
7191;SDS011;3637;51.494;11.958;2023-03-13T05:13:57;5.83;;;2.20;;
7191;SDS011;3637;51.494;11.958;2023-03-13T05:16:59;5.50;;;2.40;;
7191;SDS011;3637;51.494;11.958;2023-03-13T05:20:00;6.67;;;3.10;;
7191;SDS011;3637;51.494;11.958;2023-03-13T05:23:05;4.97;;;1.97;;
7191;SDS011;3637;51.494;11.958;2023-03-13T05:26:06;7.10;;;2.83;;
7191;SDS011;3637;51.494;11.958;2023-03-13T05:29:10;5.53;;;2.50;;
7191;SDS011;3637;51.494;11.958;2023-03-13T05:32:12;8.97;;;2.97;;
7191;SDS011;3637;51.494;11.958;2023-03-13T05:35:13;5.47;;;2.93;;
7191;SDS011;3637;51.494;11.958;2023-03-13T05:38:15;4.83;;;2.70;;
7191;SDS011;3637;51.494;11.958;2023-03-13T05:41:17;4.83;;;3.17;;
7191;SDS011;3637;51.494;11.958;2023-03-13T05:44:20;7.33;;;2.77;;
7191;SDS011;3637;51.494;11.958;2023-03-13T05:47:22;8.00;;;2.80;;
7191;SDS011;3637;51.494;11.958;2023-03-13T05:50:24;6.67;;;2.80;;
7191;SDS011;3637;51.494;11.958;2023-03-13T05:53:26;5.70;;;2.30;;
7191;SDS011;3637;51.494;11.958;2023-03-13T05:56:28;4.93;;;2.40;;
7191;SDS011;3637;51.494;11.958;2023-03-13T05:59:31;5.93;;;2.20;;
7191;SDS011;3637;51.494;11.958;2023-03-13T06:02:33;4.60;;;2.20;;
7191;SDS011;3637;51.494;11.958;2023-03-13T06:05:35;7.67;;;2.60;;
7191;SDS011;3637;51.494;11.958;2023-03-13T06:08:37;10.47;;;2.77;;
7191;SDS011;3637;51.494;11.958;2023-03-13T06:11:38;13.03;;;2.70;;
7191;SDS011;3637;51.494;11.958;2023-03-13T06:14:42;6.70;;;2.67;;
7191;SDS011;3637;51.494;11.958;2023-03-13T06:17:46;5.23;;;2.50;;
7191;SDS011;3637;51.494;11.958;2023-03-13T06:20:49;4.37;;;2.20;;
7191;SDS011;3637;51.494;11.958;2023-03-13T06:23:55;4.30;;;2.20;;
7191;SDS011;3637;51.494;11.958;2023-03-13T06:26:57;6.90;;;2.57;;
7191;SDS011;3637;51.494;11.958;2023-03-13T06:30:00;6.43;;;2.80;;
7191;SDS011;3637;51.494;11.958;2023-03-13T06:33:02;5.10;;;2.43;;
7191;SDS011;3637;51.494;11.958;2023-03-13T06:36:05;4.03;;;2.20;;
7191;SDS011;3637;51.494;11.958;2023-03-13T06:39:07;5.10;;;1.90;;
7191;SDS011;3637;51.494;11.958;2023-03-13T06:42:09;6.60;;;2.40;;
7191;SDS011;3637;51.494;11.958;2023-03-13T06:45:12;3.23;;;2.20;;
7191;SDS011;3637;51.494;11.958;2023-03-13T06:48:14;7.63;;;2.37;;
7191;SDS011;3637;51.494;11.958;2023-03-13T06:51:17;5.53;;;2.37;;
7191;SDS011;3637;51.494;11.958;2023-03-13T06:54:20;4.63;;;2.30;;
7191;SDS011;3637;51.494;11.958;2023-03-13T06:57:22;3.53;;;2.03;;
7191;SDS011;3637;51.494;11.958;2023-03-13T07:00:26;5.13;;;2.23;;
7191;SDS011;3637;51.494;11.958;2023-03-13T07:03:28;4.90;;;2.20;;
7191;SDS011;3637;51.494;11.958;2023-03-13T07:06:29;6.33;;;2.33;;
7191;SDS011;3637;51.494;11.958;2023-03-13T07:09:31;3.87;;;2.27;;
7191;SDS011;3637;51.494;11.958;2023-03-13T07:12:33;5.67;;;2.63;;
7191;SDS011;3637;51.494;11.958;2023-03-13T07:15:36;4.93;;;2.27;;
7191;SDS011;3637;51.494;11.958;2023-03-13T07:18:39;6.03;;;1.97;;
7191;SDS011;3637;51.494;11.958;2023-03-13T07:21:43;5.20;;;2.17;;
7191;SDS011;3637;51.494;11.958;2023-03-13T07:24:45;2.97;;;1.90;;
7191;SDS011;3637;51.494;11.958;2023-03-13T07:27:49;4.07;;;2.20;;
7191;SDS011;3637;51.494;11.958;2023-03-13T07:30:53;2.90;;;2.00;;
7191;SDS011;3637;51.494;11.958;2023-03-13T07:33:55;2.63;;;1.87;;
7191;SDS011;3637;51.494;11.958;2023-03-13T07:36:57;2.53;;;1.70;;
7191;SDS011;3637;51.494;11.958;2023-03-13T07:39:59;1.67;;;1.57;;
7191;SDS011;3637;51.494;11.958;2023-03-13T07:43:00;2.40;;;1.60;;
7191;SDS011;3637;51.494;11.958;2023-03-13T07:46:05;1.53;;;1.43;;
7191;SDS011;3637;51.494;11.958;2023-03-13T07:49:08;1.70;;;1.30;;
7191;SDS011;3637;51.494;11.958;2023-03-13T07:52:10;2.30;;;1.33;;
7191;SDS011;3637;51.494;11.958;2023-03-13T07:55:11;1.67;;;1.27;;
7191;SDS011;3637;51.494;11.958;2023-03-13T07:58:13;1.80;;;1.40;;
7191;SDS011;3637;51.494;11.958;2023-03-13T08:01:17;2.87;;;1.73;;
7191;SDS011;3637;51.494;11.958;2023-03-13T08:04:20;1.93;;;1.17;;
7191;SDS011;3637;51.494;11.958;2023-03-13T08:07:21;1.60;;;1.50;;
7191;SDS011;3637;51.494;11.958;2023-03-13T08:10:23;1.43;;;1.33;;
7191;SDS011;3637;51.494;11.958;2023-03-13T08:13:25;2.30;;;1.50;;
7191;SDS011;3637;51.494;11.958;2023-03-13T08:16:29;1.40;;;1.30;;
7191;SDS011;3637;51.494;11.958;2023-03-13T08:19:33;1.07;;;1.00;;
7191;SDS011;3637;51.494;11.958;2023-03-13T08:22:35;2.63;;;1.30;;
7191;SDS011;3637;51.494;11.958;2023-03-13T08:26:02;1.10;;;1.10;;
7191;SDS011;3637;51.494;11.958;2023-03-13T08:29:06;2.03;;;1.37;;
7191;SDS011;3637;51.494;11.958;2023-03-13T08:40:16;1.30;;;1.20;;
7191;SDS011;3637;51.494;11.958;2023-03-13T08:43:36;1.90;;;1.47;;
7191;SDS011;3637;51.494;11.958;2023-03-13T08:47:49;3.27;;;1.70;;
7191;SDS011;3637;51.494;11.958;2023-03-13T08:51:23;1.30;;;1.20;;
7191;SDS011;3637;51.494;11.958;2023-03-13T08:54:45;1.67;;;1.50;;
7191;SDS011;3637;51.494;11.958;2023-03-13T08:58:17;2.40;;;1.70;;
7191;SDS011;3637;51.494;11.958;2023-03-13T09:01:41;1.33;;;1.23;;
7191;SDS011;3637;51.494;11.958;2023-03-13T09:05:11;1.00;;;1.00;;
7191;SDS011;3637;51.494;11.958;2023-03-13T09:08:57;2.00;;;1.40;;
7191;SDS011;3637;51.494;11.958;2023-03-13T09:12:25;2.83;;;1.70;;
7191;SDS011;3637;51.494;11.958;2023-03-13T09:15:51;1.67;;;1.40;;
7191;SDS011;3637;51.494;11.958;2023-03-13T09:34:59;1.50;;;1.33;;
7191;SDS011;3637;51.494;11.958;2023-03-13T09:38:54;1.30;;;1.20;;
7191;SDS011;3637;51.494;11.958;2023-03-13T09:42:51;1.40;;;1.30;;
7191;SDS011;3637;51.494;11.958;2023-03-13T09:46:53;2.07;;;1.33;;
7191;SDS011;3637;51.494;11.958;2023-03-13T09:50:10;1.30;;;1.20;;
7191;SDS011;3637;51.494;11.958;2023-03-13T09:54:51;1.00;;;1.00;;
7191;SDS011;3637;51.494;11.958;2023-03-13T10:02:23;1.30;;;1.20;;
7191;SDS011;3637;51.494;11.958;2023-03-13T10:09:53;2.00;;;1.50;;
7191;SDS011;3637;51.494;11.958;2023-03-13T10:13:13;1.40;;;1.30;;
7191;SDS011;3637;51.494;11.958;2023-03-13T10:16:41;1.40;;;1.30;;
7191;SDS011;3637;51.494;11.958;2023-03-13T10:23:49;0.90;;;0.90;;
7191;SDS011;3637;51.494;11.958;2023-03-13T10:27:13;1.30;;;1.20;;
7191;SDS011;3637;51.494;11.958;2023-03-13T10:30:26;1.80;;;1.13;;
7191;SDS011;3637;51.494;11.958;2023-03-13T10:34:09;1.63;;;1.20;;
7191;SDS011;3637;51.494;11.958;2023-03-13T10:37:27;1.40;;;1.30;;
7191;SDS011;3637;51.494;11.958;2023-03-13T10:40:33;1.30;;;1.20;;
7191;SDS011;3637;51.494;11.958;2023-03-13T10:43:35;2.67;;;1.20;;
7191;SDS011;3637;51.494;11.958;2023-03-13T10:47:08;1.60;;;1.27;;
7191;SDS011;3637;51.494;11.958;2023-03-13T10:50:31;1.40;;;1.30;;
7191;SDS011;3637;51.494;11.958;2023-03-13T10:53:39;1.00;;;1.00;;
7191;SDS011;3637;51.494;11.958;2023-03-13T10:57:06;1.33;;;1.23;;
7191;SDS011;3637;51.494;11.958;2023-03-13T11:00:29;1.37;;;1.27;;
7191;SDS011;3637;51.494;11.958;2023-03-13T11:03:37;1.30;;;1.20;;
7191;SDS011;3637;51.494;11.958;2023-03-13T11:07:33;1.30;;;1.20;;
7191;SDS011;3637;51.494;11.958;2023-03-13T11:12:16;1.43;;;1.33;;
7191;SDS011;3637;51.494;11.958;2023-03-13T11:18:03;1.30;;;1.20;;
7191;SDS011;3637;51.494;11.958;2023-03-13T11:21:22;1.40;;;1.30;;
7191;SDS011;3637;51.494;11.958;2023-03-13T11:24:43;1.30;;;1.20;;
7191;SDS011;3637;51.494;11.958;2023-03-13T11:28:28;1.47;;;1.37;;
7191;SDS011;3637;51.494;11.958;2023-03-13T11:40:10;1.50;;;1.40;;
7191;SDS011;3637;51.494;11.958;2023-03-13T11:43:26;1.57;;;1.47;;
7191;SDS011;3637;51.494;11.958;2023-03-13T11:46:55;1.50;;;1.40;;
7191;SDS011;3637;51.494;11.958;2023-03-13T11:58:13;2.43;;;1.30;;
7191;SDS011;3637;51.494;11.958;2023-03-13T12:01:33;1.50;;;1.40;;
7191;SDS011;3637;51.494;11.958;2023-03-13T12:04:38;4.97;;;1.70;;
7191;SDS011;3637;51.494;11.958;2023-03-13T12:07:45;1.57;;;1.47;;
7191;SDS011;3637;51.494;11.958;2023-03-13T12:10:57;2.07;;;1.50;;
7191;SDS011;3637;51.494;11.958;2023-03-13T12:14:22;1.60;;;1.50;;
7191;SDS011;3637;51.494;11.958;2023-03-13T12:21:17;2.67;;;1.57;;
7191;SDS011;3637;51.494;11.958;2023-03-13T12:24:33;2.93;;;1.80;;
7191;SDS011;3637;51.494;11.958;2023-03-13T12:27:57;1.80;;;1.63;;
7191;SDS011;3637;51.494;11.958;2023-03-13T12:31:20;1.67;;;1.40;;
7191;SDS011;3637;51.494;11.958;2023-03-13T12:34:35;1.57;;;1.30;;
7191;SDS011;3637;51.494;11.958;2023-03-13T12:42:16;3.43;;;1.27;;
7191;SDS011;3637;51.494;11.958;2023-03-13T12:46:06;1.63;;;1.50;;
7191;SDS011;3637;51.494;11.958;2023-03-13T12:49:54;2.00;;;1.80;;
7191;SDS011;3637;51.494;11.958;2023-03-13T12:57:06;2.70;;;1.70;;
7191;SDS011;3637;51.494;11.958;2023-03-13T13:00:19;1.70;;;1.60;;
7191;SDS011;3637;51.494;11.958;2023-03-13T13:03:28;2.90;;;1.47;;
7191;SDS011;3637;51.494;11.958;2023-03-13T13:06:51;1.50;;;1.40;;
7191;SDS011;3637;51.494;11.958;2023-03-13T13:09:59;2.37;;;1.50;;
7191;SDS011;3637;51.494;11.958;2023-03-13T13:13:18;1.40;;;1.30;;
7191;SDS011;3637;51.494;11.958;2023-03-13T13:16:31;3.20;;;1.40;;
7191;SDS011;3637;51.494;11.958;2023-03-13T13:19:44;1.60;;;1.50;;
7191;SDS011;3637;51.494;11.958;2023-03-13T13:22:47;1.47;;;1.37;;
7191;SDS011;3637;51.494;11.958;2023-03-13T13:25:51;1.70;;;1.60;;
7191;SDS011;3637;51.494;11.958;2023-03-13T13:28:56;3.70;;;1.57;;
7191;SDS011;3637;51.494;11.958;2023-03-13T13:31:58;2.60;;;1.60;;
7191;SDS011;3637;51.494;11.958;2023-03-13T13:35:04;1.70;;;1.33;;
7191;SDS011;3637;51.494;11.958;2023-03-13T13:38:26;1.50;;;1.40;;
7191;SDS011;3637;51.494;11.958;2023-03-13T13:41:38;1.77;;;1.43;;
7191;SDS011;3637;51.494;11.958;2023-03-13T13:44:55;1.50;;;1.40;;
7191;SDS011;3637;51.494;11.958;2023-03-13T13:51:34;3.73;;;1.80;;
7191;SDS011;3637;51.494;11.958;2023-03-13T13:54:52;1.60;;;1.50;;
7191;SDS011;3637;51.494;11.958;2023-03-13T13:57:57;4.30;;;1.50;;
7191;SDS011;3637;51.494;11.958;2023-03-13T14:01:00;2.57;;;1.67;;
7191;SDS011;3637;51.494;11.958;2023-03-13T14:04:11;5.73;;;1.70;;
7191;SDS011;3637;51.494;11.958;2023-03-13T14:07:17;3.37;;;1.73;;
7191;SDS011;3637;51.494;11.958;2023-03-13T14:13:52;2.03;;;1.50;;
7191;SDS011;3637;51.494;11.958;2023-03-13T14:17:09;1.97;;;1.60;;
7191;SDS011;3637;51.494;11.958;2023-03-13T14:20:21;1.40;;;1.30;;
7191;SDS011;3637;51.494;11.958;2023-03-13T14:23:32;2.00;;;1.27;;
7191;SDS011;3637;51.494;11.958;2023-03-13T14:26:41;1.70;;;1.60;;
7191;SDS011;3637;51.494;11.958;2023-03-13T14:29:58;1.70;;;1.60;;
7191;SDS011;3637;51.494;11.958;2023-03-13T14:33:00;1.53;;;1.43;;
7191;SDS011;3637;51.494;11.958;2023-03-13T14:36:02;2.83;;;1.70;;
7191;SDS011;3637;51.494;11.958;2023-03-13T14:39:11;1.70;;;1.60;;
7191;SDS011;3637;51.494;11.958;2023-03-13T14:42:17;2.17;;;1.70;;
7191;SDS011;3637;51.494;11.958;2023-03-13T14:45:20;1.67;;;1.40;;
7191;SDS011;3637;51.494;11.958;2023-03-13T14:48:26;2.27;;;1.50;;
7191;SDS011;3637;51.494;11.958;2023-03-13T14:51:31;2.47;;;1.70;;
7191;SDS011;3637;51.494;11.958;2023-03-13T14:54:51;3.23;;;1.37;;
7191;SDS011;3637;51.494;11.958;2023-03-13T14:57:55;4.00;;;1.40;;
7191;SDS011;3637;51.494;11.958;2023-03-13T15:00:59;3.87;;;1.63;;
7191;SDS011;3637;51.494;11.958;2023-03-13T15:04:14;1.50;;;1.40;;
7191;SDS011;3637;51.494;11.958;2023-03-13T15:07:16;1.90;;;1.47;;
7191;SDS011;3637;51.494;11.958;2023-03-13T15:10:21;2.97;;;1.87;;
7191;SDS011;3637;51.494;11.958;2023-03-13T15:13:24;1.53;;;1.43;;
7191;SDS011;3637;51.494;11.958;2023-03-13T15:16:30;1.87;;;1.40;;
7191;SDS011;3637;51.494;11.958;2023-03-13T15:19:32;1.40;;;1.30;;
7191;SDS011;3637;51.494;11.958;2023-03-13T15:22:35;1.90;;;1.53;;
7191;SDS011;3637;51.494;11.958;2023-03-13T15:25:40;2.87;;;1.60;;
7191;SDS011;3637;51.494;11.958;2023-03-13T15:28:42;1.50;;;1.40;;
7191;SDS011;3637;51.494;11.958;2023-03-13T15:31:44;1.47;;;1.37;;
7191;SDS011;3637;51.494;11.958;2023-03-13T15:34:47;1.40;;;1.30;;
7191;SDS011;3637;51.494;11.958;2023-03-13T15:37:49;3.07;;;2.23;;
7191;SDS011;3637;51.494;11.958;2023-03-13T15:40:52;3.60;;;1.80;;
7191;SDS011;3637;51.494;11.958;2023-03-13T15:43:54;3.87;;;1.60;;
7191;SDS011;3637;51.494;11.958;2023-03-13T15:46:56;1.57;;;1.47;;
7191;SDS011;3637;51.494;11.958;2023-03-13T15:49:58;1.97;;;1.60;;
7191;SDS011;3637;51.494;11.958;2023-03-13T15:53:00;1.87;;;1.57;;
7191;SDS011;3637;51.494;11.958;2023-03-13T15:56:05;1.50;;;1.40;;
7191;SDS011;3637;51.494;11.958;2023-03-13T15:59:13;2.93;;;1.73;;
7191;SDS011;3637;51.494;11.958;2023-03-13T16:02:17;1.77;;;1.67;;
7191;SDS011;3637;51.494;11.958;2023-03-13T16:05:19;1.50;;;1.40;;
7191;SDS011;3637;51.494;11.958;2023-03-13T16:08:22;1.70;;;1.60;;
7191;SDS011;3637;51.494;11.958;2023-03-13T16:11:27;1.80;;;1.60;;
7191;SDS011;3637;51.494;11.958;2023-03-13T16:14:30;2.40;;;1.67;;
7191;SDS011;3637;51.494;11.958;2023-03-13T16:17:31;3.57;;;1.60;;
7191;SDS011;3637;51.494;11.958;2023-03-13T16:20:33;2.43;;;1.70;;
7191;SDS011;3637;51.494;11.958;2023-03-13T16:23:35;2.03;;;1.70;;
7191;SDS011;3637;51.494;11.958;2023-03-13T16:26:38;2.00;;;1.70;;
7191;SDS011;3637;51.494;11.958;2023-03-13T16:29:40;2.50;;;1.93;;
7191;SDS011;3637;51.494;11.958;2023-03-13T16:32:42;2.47;;;2.27;;
7191;SDS011;3637;51.494;11.958;2023-03-13T16:35:49;2.90;;;1.93;;
7191;SDS011;3637;51.494;11.958;2023-03-13T16:38:53;2.50;;;2.03;;
7191;SDS011;3637;51.494;11.958;2023-03-13T16:41:56;2.00;;;1.80;;
7191;SDS011;3637;51.494;11.958;2023-03-13T16:44:58;3.23;;;2.00;;
7191;SDS011;3637;51.494;11.958;2023-03-13T16:48:00;2.30;;;1.87;;
7191;SDS011;3637;51.494;11.958;2023-03-13T16:51:02;2.97;;;2.10;;
7191;SDS011;3637;51.494;11.958;2023-03-13T16:54:04;5.77;;;2.00;;
7191;SDS011;3637;51.494;11.958;2023-03-13T16:57:11;2.33;;;1.80;;
7191;SDS011;3637;51.494;11.958;2023-03-13T17:00:16;2.00;;;1.80;;
7191;SDS011;3637;51.494;11.958;2023-03-13T17:03:19;2.10;;;1.90;;
7191;SDS011;3637;51.494;11.958;2023-03-13T17:06:22;2.07;;;1.80;;
7191;SDS011;3637;51.494;11.958;2023-03-13T17:09:27;2.23;;;1.90;;
7191;SDS011;3637;51.494;11.958;2023-03-13T17:12:30;2.10;;;1.90;;
7191;SDS011;3637;51.494;11.958;2023-03-13T17:15:33;2.43;;;1.97;;
7191;SDS011;3637;51.494;11.958;2023-03-13T17:18:37;1.80;;;1.70;;
7191;SDS011;3637;51.494;11.958;2023-03-13T17:21:39;2.30;;;2.00;;
7191;SDS011;3637;51.494;11.958;2023-03-13T17:24:41;3.27;;;2.33;;
7191;SDS011;3637;51.494;11.958;2023-03-13T17:27:45;4.17;;;3.00;;
7191;SDS011;3637;51.494;11.958;2023-03-13T17:30:52;4.77;;;3.23;;
7191;SDS011;3637;51.494;11.958;2023-03-13T17:33:54;5.43;;;3.17;;
7191;SDS011;3637;51.494;11.958;2023-03-13T17:36:56;8.23;;;3.23;;
7191;SDS011;3637;51.494;11.958;2023-03-13T17:39:58;3.17;;;2.20;;
7191;SDS011;3637;51.494;11.958;2023-03-13T17:43:01;2.53;;;2.07;;
7191;SDS011;3637;51.494;11.958;2023-03-13T17:46:07;2.43;;;2.07;;
7191;SDS011;3637;51.494;11.958;2023-03-13T17:49:14;5.87;;;2.07;;
7191;SDS011;3637;51.494;11.958;2023-03-13T17:52:19;3.20;;;2.33;;
7191;SDS011;3637;51.494;11.958;2023-03-13T17:55:21;5.97;;;2.23;;
7191;SDS011;3637;51.494;11.958;2023-03-13T17:58:24;3.03;;;2.53;;
7191;SDS011;3637;51.494;11.958;2023-03-13T18:01:27;3.27;;;2.40;;
7191;SDS011;3637;51.494;11.958;2023-03-13T18:04:30;2.73;;;2.20;;
7191;SDS011;3637;51.494;11.958;2023-03-13T18:07:31;3.93;;;2.40;;
7191;SDS011;3637;51.494;11.958;2023-03-13T18:10:33;3.80;;;2.30;;
7191;SDS011;3637;51.494;11.958;2023-03-13T18:13:36;2.53;;;2.33;;
7191;SDS011;3637;51.494;11.958;2023-03-13T18:16:39;4.17;;;2.40;;
7191;SDS011;3637;51.494;11.958;2023-03-13T18:19:49;4.00;;;2.57;;
7191;SDS011;3637;51.494;11.958;2023-03-13T18:22:51;2.97;;;2.30;;
7191;SDS011;3637;51.494;11.958;2023-03-13T18:25:53;2.30;;;2.10;;
7191;SDS011;3637;51.494;11.958;2023-03-13T18:28:58;3.27;;;2.10;;
7191;SDS011;3637;51.494;11.958;2023-03-13T18:32:00;2.93;;;2.20;;
7191;SDS011;3637;51.494;11.958;2023-03-13T18:35:02;6.63;;;2.57;;
7191;SDS011;3637;51.494;11.958;2023-03-13T18:38:05;2.93;;;2.10;;
7191;SDS011;3637;51.494;11.958;2023-03-13T18:41:07;1.70;;;1.60;;
7191;SDS011;3637;51.494;11.958;2023-03-13T18:44:11;2.53;;;1.40;;
7191;SDS011;3637;51.494;11.958;2023-03-13T18:47:15;1.57;;;1.40;;
7191;SDS011;3637;51.494;11.958;2023-03-13T18:50:20;2.47;;;1.47;;
7191;SDS011;3637;51.494;11.958;2023-03-13T18:53:25;1.30;;;1.20;;
7191;SDS011;3637;51.494;11.958;2023-03-13T18:56:27;2.13;;;1.47;;
7191;SDS011;3637;51.494;11.958;2023-03-13T18:59:32;1.07;;;1.00;;
7191;SDS011;3637;51.494;11.958;2023-03-13T19:02:34;1.50;;;1.40;;
7191;SDS011;3637;51.494;11.958;2023-03-13T19:05:36;2.10;;;1.57;;
7191;SDS011;3637;51.494;11.958;2023-03-13T19:08:38;2.20;;;1.20;;
7191;SDS011;3637;51.494;11.958;2023-03-13T19:11:39;1.30;;;1.20;;
7191;SDS011;3637;51.494;11.958;2023-03-13T19:14:45;1.47;;;1.20;;
7191;SDS011;3637;51.494;11.958;2023-03-13T19:17:47;1.40;;;1.30;;
7191;SDS011;3637;51.494;11.958;2023-03-13T19:20:49;1.30;;;1.20;;
7191;SDS011;3637;51.494;11.958;2023-03-13T19:23:51;1.60;;;1.10;;
7191;SDS011;3637;51.494;11.958;2023-03-13T19:26:56;1.20;;;1.17;;
7191;SDS011;3637;51.494;11.958;2023-03-13T19:29:59;0.97;;;0.97;;
7191;SDS011;3637;51.494;11.958;2023-03-13T19:33:02;1.30;;;0.97;;
7191;SDS011;3637;51.494;11.958;2023-03-13T19:36:05;1.23;;;1.13;;
7191;SDS011;3637;51.494;11.958;2023-03-13T19:39:12;1.13;;;1.03;;
7191;SDS011;3637;51.494;11.958;2023-03-13T19:42:15;1.37;;;1.20;;
7191;SDS011;3637;51.494;11.958;2023-03-13T19:45:18;1.20;;;1.10;;
7191;SDS011;3637;51.494;11.958;2023-03-13T19:48:21;1.13;;;1.13;;
7191;SDS011;3637;51.494;11.958;2023-03-13T19:51:26;1.00;;;1.00;;
7191;SDS011;3637;51.494;11.958;2023-03-13T19:54:29;1.13;;;1.03;;
7191;SDS011;3637;51.494;11.958;2023-03-13T19:57:31;1.50;;;1.17;;
7191;SDS011;3637;51.494;11.958;2023-03-13T20:00:34;2.40;;;1.17;;
7191;SDS011;3637;51.494;11.958;2023-03-13T20:03:36;1.10;;;1.00;;
7191;SDS011;3637;51.494;11.958;2023-03-13T20:06:38;1.23;;;1.10;;
7191;SDS011;3637;51.494;11.958;2023-03-13T20:09:41;1.00;;;1.00;;
7191;SDS011;3637;51.494;11.958;2023-03-13T20:12:43;1.27;;;1.17;;
7191;SDS011;3637;51.494;11.958;2023-03-13T20:15:46;1.43;;;1.07;;
7191;SDS011;3637;51.494;11.958;2023-03-13T20:18:48;1.20;;;1.10;;
7191;SDS011;3637;51.494;11.958;2023-03-13T20:21:50;1.27;;;1.03;;